createdAt,value
2023-03-26T00:01:46.537Z,9.71
2023-03-26T00:06:51.441Z,9.68
2023-03-26T00:11:53.120Z,9.53
2023-03-26T00:16:57.754Z,9.62
2023-03-26T00:21:59.445Z,9.59
2023-03-26T00:27:02.282Z,9.51
2023-03-26T00:32:10.247Z,9.50
2023-03-26T00:37:15.108Z,9.55
2023-03-26T00:42:16.742Z,9.52
2023-03-26T00:47:21.404Z,9.52
2023-03-26T00:52:28.509Z,9.50
2023-03-26T00:57:35.979Z,9.47
2023-03-26T01:02:40.838Z,9.49
2023-03-26T01:07:42.734Z,9.53
2023-03-26T01:12:44.521Z,9.51
2023-03-26T01:17:48.691Z,9.52
2023-03-26T01:22:59.833Z,9.60
2023-03-26T01:28:08.783Z,9.63
2023-03-26T01:33:30.155Z,9.59
2023-03-26T01:38:46.647Z,9.69
2023-03-26T01:44:00.055Z,9.75
2023-03-26T01:49:07.314Z,9.79
2023-03-26T01:54:19.389Z,9.83
2023-03-26T01:59:52.202Z,9.79
2023-03-26T02:05:12.560Z,9.77
2023-03-26T02:10:24.228Z,9.80
2023-03-26T02:15:30.509Z,9.83
2023-03-26T02:20:37.382Z,9.82
2023-03-26T02:25:39.869Z,9.78
2023-03-26T02:30:47.861Z,9.82
2023-03-26T02:35:50.274Z,9.86
2023-03-26T02:40:53.373Z,9.87
2023-03-26T02:46:00.930Z,9.91
2023-03-26T02:51:27.389Z,9.92
2023-03-26T02:56:38.460Z,9.95
2023-03-26T03:01:53.610Z,10.02
2023-03-26T03:07:20.326Z,9.98
2023-03-26T03:12:24.837Z,10.00
2023-03-26T03:17:35.452Z,10.09
2023-03-26T03:22:37.808Z,10.08
2023-03-26T03:27:41.609Z,10.06
2023-03-26T03:32:50.178Z,9.98
2023-03-26T03:37:58.578Z,9.88
2023-03-26T03:43:01.358Z,9.91
2023-03-26T03:48:18.414Z,9.92
2023-03-26T03:53:25.933Z,9.92
2023-03-26T03:58:31.527Z,9.92
2023-03-26T04:03:46.536Z,10.00
2023-03-26T04:08:51.718Z,10.02
2023-03-26T04:13:57.241Z,10.00
2023-03-26T04:19:23.293Z,10.00
2023-03-26T04:24:34.101Z,10.02
2023-03-26T04:29:44.772Z,10.02
2023-03-26T04:34:56.129Z,10.01
2023-03-26T04:40:02.626Z,10.04
2023-03-26T04:45:11.340Z,9.99
2023-03-26T04:50:15.568Z,10.01
2023-03-26T04:55:31.526Z,9.97
2023-03-26T05:00:47.754Z,9.92
2023-03-26T05:05:58.672Z,9.86
2023-03-26T05:11:01.564Z,9.85
2023-03-26T05:16:09.485Z,9.79
2023-03-26T05:21:14.794Z,9.73
2023-03-26T05:26:20.422Z,9.70
2023-03-26T05:31:33.572Z,9.67
2023-03-26T05:36:36.993Z,9.67
2023-03-26T05:42:16.149Z,9.66
2023-03-26T05:47:35.588Z,9.66
2023-03-26T05:52:41.107Z,9.68
2023-03-26T05:57:59.181Z,9.64
2023-03-26T06:03:19.634Z,9.59
2023-03-26T06:08:46.842Z,9.60
2023-03-26T06:13:49.214Z,9.63
2023-03-26T06:19:02.032Z,9.59
2023-03-26T06:24:22.581Z,9.51
2023-03-26T06:29:50.619Z,9.52
2023-03-26T06:35:08.703Z,9.45
2023-03-26T06:40:10.818Z,9.42
2023-03-26T06:45:24.263Z,9.36
2023-03-26T06:50:44.562Z,9.36
2023-03-26T06:56:13.093Z,9.42
2023-03-26T07:01:31.989Z,9.47
2023-03-26T07:06:54.278Z,9.55
2023-03-26T07:12:21.745Z,9.63
2023-03-26T07:17:43.058Z,9.69
2023-03-26T07:23:00.400Z,9.74
2023-03-26T07:29:04.955Z,9.77
2023-03-26T07:35:21.626Z,9.83
2023-03-26T07:40:53.267Z,9.87
2023-03-26T07:46:14.379Z,9.91
2023-03-26T07:51:41.785Z,9.96
2023-03-26T07:57:22.572Z,10.02
2023-03-26T08:03:11.483Z,10.00
2023-03-26T08:09:13.306Z,9.97
2023-03-26T08:15:02.408Z,10.02
2023-03-26T08:20:37.518Z,10.10
2023-03-26T08:26:04.511Z,10.11
2023-03-26T08:31:12.585Z,10.15
2023-03-26T08:36:16.447Z,10.17
2023-03-26T08:41:46.846Z,10.27
2023-03-26T08:47:18.548Z,10.30
2023-03-26T08:53:07.654Z,10.38
2023-03-26T08:58:37.225Z,10.45
2023-03-26T09:03:50.987Z,10.53
2023-03-26T09:09:35.713Z,10.62
2023-03-26T09:14:48.879Z,10.72
2023-03-26T09:20:12.138Z,10.82
2023-03-26T09:25:48.338Z,10.89
2023-03-26T09:31:30.358Z,10.99
2023-03-26T09:36:36.445Z,11.09
2023-03-26T09:42:30.808Z,11.16
2023-03-26T09:47:39.137Z,11.21
2023-03-26T09:53:08.773Z,11.23
2023-03-26T09:58:56.611Z,11.26
2023-03-26T10:04:40.985Z,11.31
2023-03-26T10:09:55.644Z,11.33
2023-03-26T10:15:05.428Z,11.36
2023-03-26T10:20:31.786Z,11.33
2023-03-26T10:25:51.673Z,11.31
2023-03-26T10:31:19.159Z,11.27
2023-03-26T10:36:37.234Z,11.17
2023-03-26T10:41:54.150Z,11.14
2023-03-26T10:47:23.397Z,11.09
2023-03-26T10:52:48.456Z,11.02
2023-03-26T10:57:59.888Z,10.86
2023-03-26T11:03:27.180Z,10.69
2023-03-26T11:08:53.786Z,10.55
2023-03-26T11:14:21.388Z,10.40
2023-03-26T11:19:52.689Z,10.05
2023-03-26T11:25:05.828Z,10.10
2023-03-26T11:30:41.616Z,10.08
2023-03-26T11:35:55.327Z,10.05
2023-03-26T11:40:59.120Z,9.94
2023-03-26T11:46:22.818Z,9.89
2023-03-26T11:51:33.046Z,9.83
2023-03-26T11:57:05.498Z,9.79
2023-03-26T12:02:14.440Z,9.84
2023-03-26T12:07:23.488Z,9.94
2023-03-26T12:12:29.319Z,10.11
2023-03-26T12:17:32.781Z,10.23
2023-03-26T12:22:43.481Z,10.27
2023-03-26T12:28:13.433Z,10.22
2023-03-26T12:33:34.225Z,10.23
2023-03-26T12:38:39.107Z,10.37
2023-03-26T12:44:56.341Z,10.50
2023-03-26T12:49:06.256Z,10.57
2023-03-26T12:54:42.395Z,10.61
2023-03-26T13:00:22.896Z,10.64
2023-03-26T13:05:55.996Z,10.70
2023-03-26T13:11:19.442Z,10.73
2023-03-26T13:16:31.177Z,10.85
2023-03-26T13:22:25.055Z,11.02
2023-03-26T13:28:00.416Z,11.13
2023-03-26T13:33:26.180Z,11.30
2023-03-26T13:38:33.876Z,11.28
2023-03-26T13:43:46.272Z,11.46
2023-03-26T13:49:01.932Z,11.53
2023-03-26T13:54:15.719Z,11.36
2023-03-26T13:59:40.150Z,11.23
2023-03-26T14:04:49.537Z,11.21
2023-03-26T14:10:01.276Z,11.29
2023-03-26T14:15:11.493Z,11.37
2023-03-26T14:20:24.685Z,11.51
2023-03-26T14:25:42.105Z,11.67
2023-03-26T14:30:57.432Z,11.91
2023-03-26T14:36:12.575Z,12.20
2023-03-26T14:41:24.305Z,12.50
2023-03-26T14:46:44.357Z,12.80
2023-03-26T14:52:04.136Z,12.98
2023-03-26T14:57:21.478Z,13.11
2023-03-26T15:02:26.216Z,13.17
2023-03-26T15:07:47.959Z,13.18
2023-03-26T15:13:30.920Z,13.19
2023-03-26T15:19:09.890Z,13.15
2023-03-26T15:24:20.436Z,13.09
2023-03-26T15:29:48.376Z,13.08
2023-03-26T15:35:00.772Z,13.05
2023-03-26T15:40:30.839Z,12.97
2023-03-26T15:45:45.954Z,13.00
2023-03-26T15:50:59.721Z,13.02
2023-03-26T15:56:11.149Z,13.10
2023-03-26T16:01:20.161Z,13.27
2023-03-26T16:06:50.069Z,13.48
2023-03-26T16:11:59.181Z,13.65
2023-03-26T16:17:02.677Z,13.73
2023-03-26T16:22:27.871Z,13.88
2023-03-26T16:27:32.106Z,14.05
2023-03-26T16:32:48.029Z,14.20
2023-03-26T16:38:09.192Z,14.35
2023-03-26T16:43:24.330Z,14.38
2023-03-26T16:48:31.477Z,14.31
2023-03-26T16:53:53.182Z,14.18
2023-03-26T16:59:08.806Z,13.93
2023-03-26T17:04:19.175Z,13.79
2023-03-26T17:09:55.513Z,13.64
2023-03-26T17:15:05.966Z,13.51
2023-03-26T17:20:18.422Z,13.37
2023-03-26T17:25:42.328Z,13.25
2023-03-26T17:30:53.667Z,13.08
2023-03-26T17:36:21.357Z,12.94
2023-03-26T17:41:51.536Z,12.87
2023-03-26T17:46:57.013Z,12.85
2023-03-26T17:52:17.068Z,12.82
2023-03-26T17:57:40.020Z,12.79
2023-03-26T18:02:48.440Z,12.76
2023-03-26T18:08:29.556Z,12.73
2023-03-26T18:14:03.092Z,12.69
2023-03-26T18:19:18.182Z,12.57
2023-03-26T18:24:30.429Z,12.52
2023-03-26T18:29:36.597Z,12.51
2023-03-26T18:34:49.832Z,12.51
2023-03-26T18:40:16.200Z,12.45
2023-03-26T18:45:23.011Z,12.35
2023-03-26T18:50:38.031Z,12.27
2023-03-26T18:55:40.415Z,12.22
2023-03-26T19:00:42.712Z,12.12
2023-03-26T19:05:52.324Z,12.06
2023-03-26T19:10:55.271Z,12.04
2023-03-26T19:15:57.073Z,12.00
2023-03-26T19:21:02.332Z,11.94
2023-03-26T19:26:06.978Z,11.86
2023-03-26T19:31:15.996Z,11.72
2023-03-26T19:36:24.287Z,11.53
2023-03-26T19:41:31.298Z,11.30
2023-03-26T19:46:53.830Z,11.09
2023-03-26T19:52:13.237Z,10.94
2023-03-26T19:57:21.468Z,10.94
2023-03-26T20:02:23.317Z,10.82
2023-03-26T20:07:35.336Z,10.79
2023-03-26T20:12:37.690Z,10.80
2023-03-26T20:17:42.681Z,10.82
2023-03-26T20:22:46.883Z,10.76
2023-03-26T20:27:48.880Z,10.68
2023-03-26T20:33:12.790Z,10.61
2023-03-26T20:38:19.831Z,10.42
2023-03-26T20:43:24.079Z,10.28
2023-03-26T20:48:28.532Z,10.22
2023-03-26T20:53:32.661Z,10.12
2023-03-26T20:58:34.296Z,10.07
2023-03-26T21:03:40.772Z,10.02
2023-03-26T21:08:45.539Z,10.03
2023-03-26T21:13:58.082Z,9.96
2023-03-26T21:19:00.110Z,9.95
2023-03-26T21:24:20.526Z,9.89
2023-03-26T21:29:25.286Z,9.90
2023-03-26T21:34:29.303Z,9.83
2023-03-26T21:39:32.730Z,9.75
2023-03-26T21:44:34.681Z,9.70
2023-03-26T21:49:38.945Z,9.62
2023-03-26T21:54:43.834Z,9.62
2023-03-26T22:00:11.581Z,9.56
2023-03-26T22:05:25.550Z,9.54
2023-03-26T22:10:27.865Z,9.50
2023-03-26T22:15:35.452Z,9.50
2023-03-26T22:20:37.609Z,9.38
2023-03-26T22:25:44.196Z,9.38
2023-03-26T22:30:46.320Z,9.33
2023-03-26T22:35:47.925Z,9.39
2023-03-26T22:40:57.459Z,9.41
2023-03-26T22:45:59.415Z,9.35
2023-03-26T22:51:04.277Z,9.36
2023-03-26T22:56:06.417Z,9.29
2023-03-26T23:01:18.813Z,9.36
2023-03-26T23:06:22.716Z,9.38
2023-03-26T23:11:29.565Z,9.42
2023-03-26T23:16:33.646Z,9.45
2023-03-26T23:21:37.676Z,9.41
2023-03-26T23:26:50.639Z,9.45
2023-03-26T23:31:54.020Z,9.38
2023-03-26T23:36:57.932Z,9.37
2023-03-26T23:41:59.516Z,9.37
2023-03-26T23:47:01.141Z,9.39
2023-03-26T23:52:12.080Z,9.38
2023-03-26T23:57:13.834Z,9.37
